Terminal Aerodrome Forecast
Issued by NWS Louisville, KY

Current Version | Previous Version | Text Only | Print | Product List | Glossary On
Versions: 1 2 3 4 5 6 7 8 9 10 11 12 13 14 15
000
FTUS43 KLMK 122300
TAFBWG
TAF
KBWG 122323Z 1300/1324 VRB03KT P6SM SCT120
      TEMPO 1309/1312 4SM BR
     FM131400 22011G17KT P6SM SCT060=

USA.gov is the U.S. government's official web portal to all federal, state and local government web resources and services.